Terminal Aerodrome Forecast
Issued by NWS Riverton, WY

Home | Current Version | Previous Version | Text Only | Print | Product List | Glossary On
Versions: 1 2 3 4 5 6 7 8 9 10 11 12
000
FTUS45 KRIW 281726
TAFRIW
TAF
KRIW 281726Z 2818/2918 10007KT P6SM SCT110
     FM282200 02014G22KT P6SM VCTS SCT080CB BKN120
     FM290300 04008KT P6SM FEW090 SCT120
     FM290700 VRB05KT P6SM FEW120=

USA.gov is the U.S. government's official web portal to all federal, state and local government web resources and services.